sensor_id;sensor_type;location;lat;lon;timestamp;P1;durP1;ratioP1;P2;durP2;ratioP2
13319;SDS011;59599;47.608;12.190;2022-09-29T04:02:13;3.73;;;2.20;;
13319;SDS011;59599;47.608;12.190;2022-09-29T04:04:42;2.47;;;2.27;;
13319;SDS011;59599;47.608;12.190;2022-09-29T04:07:08;2.50;;;2.30;;
13319;SDS011;59599;47.608;12.190;2022-09-29T04:09:34;2.77;;;2.27;;
13319;SDS011;59599;47.608;12.190;2022-09-29T04:12:00;2.60;;;2.40;;
13319;SDS011;59599;47.608;12.190;2022-09-29T04:14:25;2.40;;;2.20;;
13319;SDS011;59599;47.608;12.190;2022-09-29T04:16:51;2.27;;;2.07;;
13319;SDS011;59599;47.608;12.190;2022-09-29T04:19:17;2.40;;;2.20;;
13319;SDS011;59599;47.608;12.190;2022-09-29T04:21:43;2.53;;;2.33;;
13319;SDS011;59599;47.608;12.190;2022-09-29T04:24:10;2.20;;;2.00;;
13319;SDS011;59599;47.608;12.190;2022-09-29T04:26:36;2.10;;;1.90;;
13319;SDS011;59599;47.608;12.190;2022-09-29T04:29:03;2.63;;;2.30;;
13319;SDS011;59599;47.608;12.190;2022-09-29T04:31:29;3.20;;;2.77;;
13319;SDS011;59599;47.608;12.190;2022-09-29T04:33:55;3.27;;;3.00;;
13319;SDS011;59599;47.608;12.190;2022-09-29T04:36:21;3.90;;;3.23;;
13319;SDS011;59599;47.608;12.190;2022-09-29T04:38:47;3.60;;;3.30;;
13319;SDS011;59599;47.608;12.190;2022-09-29T04:41:15;3.73;;;3.40;;
13319;SDS011;59599;47.608;12.190;2022-09-29T04:43:41;4.10;;;3.70;;
13319;SDS011;59599;47.608;12.190;2022-09-29T04:46:07;3.53;;;3.23;;
13319;SDS011;59599;47.608;12.190;2022-09-29T04:48:34;4.33;;;3.70;;
13319;SDS011;59599;47.608;12.190;2022-09-29T04:51:00;3.73;;;3.43;;
13319;SDS011;59599;47.608;12.190;2022-09-29T04:53:26;3.50;;;3.20;;
13319;SDS011;59599;47.608;12.190;2022-09-29T04:55:52;2.90;;;2.70;;
13319;SDS011;59599;47.608;12.190;2022-09-29T04:58:18;1.83;;;1.70;;
13319;SDS011;59599;47.608;12.190;2022-09-29T05:00:44;2.20;;;2.00;;
13319;SDS011;59599;47.608;12.190;2022-09-29T05:03:10;2.90;;;1.87;;
13319;SDS011;59599;47.608;12.190;2022-09-29T05:05:35;2.07;;;1.87;;
13319;SDS011;59599;47.608;12.190;2022-09-29T05:08:02;2.03;;;1.83;;
13319;SDS011;59599;47.608;12.190;2022-09-29T05:10:29;3.20;;;2.43;;
13319;SDS011;59599;47.608;12.190;2022-09-29T05:12:55;3.30;;;3.00;;
13319;SDS011;59599;47.608;12.190;2022-09-29T05:15:21;5.30;;;4.80;;
13319;SDS011;59599;47.608;12.190;2022-09-29T05:17:47;13.07;;;9.57;;
13319;SDS011;59599;47.608;12.190;2022-09-29T05:20:13;5.10;;;4.40;;
13319;SDS011;59599;47.608;12.190;2022-09-29T05:22:40;3.20;;;2.90;;
13319;SDS011;59599;47.608;12.190;2022-09-29T05:25:06;3.17;;;2.87;;
13319;SDS011;59599;47.608;12.190;2022-09-29T05:27:33;4.83;;;2.53;;
13319;SDS011;59599;47.608;12.190;2022-09-29T05:29:59;2.43;;;2.23;;
13319;SDS011;59599;47.608;12.190;2022-09-29T05:32:24;2.93;;;2.73;;
13319;SDS011;59599;47.608;12.190;2022-09-29T05:34:50;5.90;;;3.63;;
13319;SDS011;59599;47.608;12.190;2022-09-29T05:37:16;9.07;;;7.57;;
13319;SDS011;59599;47.608;12.190;2022-09-29T05:39:42;4.40;;;3.60;;
13319;SDS011;59599;47.608;12.190;2022-09-29T05:42:09;3.57;;;3.27;;
13319;SDS011;59599;47.608;12.190;2022-09-29T05:44:35;3.13;;;2.80;;
13319;SDS011;59599;47.608;12.190;2022-09-29T05:47:01;8.37;;;3.57;;
13319;SDS011;59599;47.608;12.190;2022-09-29T05:49:27;3.90;;;3.53;;
13319;SDS011;59599;47.608;12.190;2022-09-29T05:51:54;3.30;;;3.00;;
13319;SDS011;59599;47.608;12.190;2022-09-29T05:54:20;3.80;;;3.40;;
13319;SDS011;59599;47.608;12.190;2022-09-29T05:56:47;3.93;;;3.53;;
13319;SDS011;59599;47.608;12.190;2022-09-29T05:59:13;3.43;;;3.13;;
13319;SDS011;59599;47.608;12.190;2022-09-29T06:01:39;3.50;;;3.17;;
13319;SDS011;59599;47.608;12.190;2022-09-29T06:04:05;8.87;;;4.13;;
13319;SDS011;59599;47.608;12.190;2022-09-29T06:06:31;32.93;;;7.30;;
13319;SDS011;59599;47.608;12.190;2022-09-29T06:09:00;4.57;;;4.17;;
13319;SDS011;59599;47.608;12.190;2022-09-29T06:11:26;39.07;;;7.90;;
13319;SDS011;59599;47.608;12.190;2022-09-29T06:13:57;13.53;;;5.20;;
13319;SDS011;59599;47.608;12.190;2022-09-29T06:16:24;6.17;;;3.93;;
13319;SDS011;59599;47.608;12.190;2022-09-29T06:18:50;5.30;;;4.07;;
13319;SDS011;59599;47.608;12.190;2022-09-29T06:21:17;5.70;;;4.40;;
13319;SDS011;59599;47.608;12.190;2022-09-29T06:23:44;4.83;;;4.20;;
13319;SDS011;59599;47.608;12.190;2022-09-29T06:26:11;5.43;;;4.20;;
13319;SDS011;59599;47.608;12.190;2022-09-29T06:28:38;4.50;;;4.03;;
13319;SDS011;59599;47.608;12.190;2022-09-29T06:31:09;4.10;;;3.80;;
13319;SDS011;59599;47.608;12.190;2022-09-29T06:33:36;3.90;;;3.50;;
13319;SDS011;59599;47.608;12.190;2022-09-29T06:36:05;4.20;;;3.80;;
13319;SDS011;59599;47.608;12.190;2022-09-29T06:38:51;3.93;;;3.60;;
13319;SDS011;59599;47.608;12.190;2022-09-29T06:41:16;4.87;;;3.10;;
13319;SDS011;59599;47.608;12.190;2022-09-29T06:43:43;4.73;;;3.53;;
13319;SDS011;59599;47.608;12.190;2022-09-29T06:46:09;3.63;;;3.13;;
13319;SDS011;59599;47.608;12.190;2022-09-29T06:48:35;3.13;;;2.83;;
13319;SDS011;59599;47.608;12.190;2022-09-29T06:51:01;3.40;;;3.10;;
13319;SDS011;59599;47.608;12.190;2022-09-29T06:53:30;3.10;;;2.80;;
13319;SDS011;59599;47.608;12.190;2022-09-29T06:55:56;3.03;;;2.83;;
13319;SDS011;59599;47.608;12.190;2022-09-29T06:58:24;3.47;;;3.03;;
13319;SDS011;59599;47.608;12.190;2022-09-29T07:00:50;4.33;;;3.00;;
13319;SDS011;59599;47.608;12.190;2022-09-29T07:03:16;3.37;;;3.07;;
13319;SDS011;59599;47.608;12.190;2022-09-29T07:05:42;3.73;;;3.00;;
13319;SDS011;59599;47.608;12.190;2022-09-29T07:08:08;3.00;;;2.70;;
13319;SDS011;59599;47.608;12.190;2022-09-29T07:10:34;3.30;;;3.00;;
13319;SDS011;59599;47.608;12.190;2022-09-29T07:13:00;3.10;;;2.80;;
13319;SDS011;59599;47.608;12.190;2022-09-29T07:15:26;2.77;;;2.57;;
13319;SDS011;59599;47.608;12.190;2022-09-29T07:17:55;3.83;;;2.43;;
13319;SDS011;59599;47.608;12.190;2022-09-29T07:20:22;3.17;;;2.60;;
13319;SDS011;59599;47.608;12.190;2022-09-29T07:22:48;2.57;;;2.37;;
13319;SDS011;59599;47.608;12.190;2022-09-29T07:25:13;3.20;;;2.90;;
13319;SDS011;59599;47.608;12.190;2022-09-29T07:27:39;2.73;;;2.53;;
13319;SDS011;59599;47.608;12.190;2022-09-29T07:30:05;3.10;;;2.80;;
13319;SDS011;59599;47.608;12.190;2022-09-29T07:32:31;3.20;;;2.90;;
13319;SDS011;59599;47.608;12.190;2022-09-29T07:34:57;3.17;;;2.87;;
13319;SDS011;59599;47.608;12.190;2022-09-29T07:37:24;3.30;;;3.00;;
13319;SDS011;59599;47.608;12.190;2022-09-29T07:39:50;3.10;;;2.80;;
13319;SDS011;59599;47.608;12.190;2022-09-29T07:42:17;4.63;;;2.83;;
13319;SDS011;59599;47.608;12.190;2022-09-29T07:44:43;3.00;;;2.80;;
13319;SDS011;59599;47.608;12.190;2022-09-29T07:47:09;3.40;;;2.73;;
13319;SDS011;59599;47.608;12.190;2022-09-29T07:49:35;4.20;;;2.63;;
13319;SDS011;59599;47.608;12.190;2022-09-29T07:52:01;3.10;;;2.80;;
13319;SDS011;59599;47.608;12.190;2022-09-29T07:54:26;3.13;;;2.40;;
13319;SDS011;59599;47.608;12.190;2022-09-29T07:56:52;2.70;;;2.50;;
13319;SDS011;59599;47.608;12.190;2022-09-29T07:59:18;4.03;;;3.30;;
13319;SDS011;59599;47.608;12.190;2022-09-29T08:01:44;4.77;;;2.70;;
13319;SDS011;59599;47.608;12.190;2022-09-29T08:04:10;3.30;;;2.40;;
13319;SDS011;59599;47.608;12.190;2022-09-29T08:06:36;3.07;;;2.40;;
13319;SDS011;59599;47.608;12.190;2022-09-29T08:09:03;4.53;;;2.90;;
13319;SDS011;59599;47.608;12.190;2022-09-29T08:11:29;14.60;;;9.90;;
13319;SDS011;59599;47.608;12.190;2022-09-29T08:13:55;10.30;;;6.27;;
13319;SDS011;59599;47.608;12.190;2022-09-29T08:16:21;5.80;;;5.00;;
13319;SDS011;59599;47.608;12.190;2022-09-29T08:18:47;6.23;;;3.10;;
13319;SDS011;59599;47.608;12.190;2022-09-29T08:21:14;2.87;;;2.43;;
13319;SDS011;59599;47.608;12.190;2022-09-29T08:23:41;4.83;;;2.30;;
13319;SDS011;59599;47.608;12.190;2022-09-29T08:26:12;1.47;;;1.37;;
13319;SDS011;59599;47.608;12.190;2022-09-29T08:28:38;1.50;;;1.40;;
13319;SDS011;59599;47.608;12.190;2022-09-29T08:31:09;1.80;;;1.67;;
13319;SDS011;59599;47.608;12.190;2022-09-29T08:33:36;1.63;;;1.53;;
13319;SDS011;59599;47.608;12.190;2022-09-29T08:36:03;1.30;;;1.20;;
13319;SDS011;59599;47.608;12.190;2022-09-29T08:38:38;2.33;;;1.60;;
13319;SDS011;59599;47.608;12.190;2022-09-29T08:41:09;1.47;;;1.20;;
13319;SDS011;59599;47.608;12.190;2022-09-29T08:43:40;2.47;;;1.60;;
13319;SDS011;59599;47.608;12.190;2022-09-29T08:46:10;1.63;;;1.53;;
13319;SDS011;59599;47.608;12.190;2022-09-29T08:48:47;1.50;;;1.40;;
13319;SDS011;59599;47.608;12.190;2022-09-29T08:54:06;2.47;;;1.47;;
13319;SDS011;59599;47.608;12.190;2022-09-29T08:56:34;1.80;;;1.60;;
13319;SDS011;59599;47.608;12.190;2022-09-29T08:59:00;1.70;;;1.60;;
13319;SDS011;59599;47.608;12.190;2022-09-29T09:06:33;1.50;;;1.40;;
13319;SDS011;59599;47.608;12.190;2022-09-29T09:09:23;1.93;;;1.30;;
13319;SDS011;59599;47.608;12.190;2022-09-29T09:23:07;1.10;;;0.90;;
13319;SDS011;59599;47.608;12.190;2022-09-29T09:25:47;0.60;;;0.60;;
13319;SDS011;59599;47.608;12.190;2022-09-29T09:28:18;0.90;;;0.90;;
13319;SDS011;59599;47.608;12.190;2022-09-29T09:33:22;0.80;;;0.80;;
13319;SDS011;59599;47.608;12.190;2022-09-29T09:35:51;0.70;;;0.70;;
13319;SDS011;59599;47.608;12.190;2022-09-29T09:38:24;1.20;;;0.97;;
13319;SDS011;59599;47.608;12.190;2022-09-29T09:40:52;2.67;;;1.17;;
13319;SDS011;59599;47.608;12.190;2022-09-29T09:49:16;1.27;;;1.17;;
13319;SDS011;59599;47.608;12.190;2022-09-29T09:54:34;1.93;;;1.00;;
13319;SDS011;59599;47.608;12.190;2022-09-29T09:59:50;2.93;;;1.10;;
13319;SDS011;59599;47.608;12.190;2022-09-29T10:02:21;1.47;;;0.70;;
13319;SDS011;59599;47.608;12.190;2022-09-29T10:04:48;1.23;;;1.00;;
13319;SDS011;59599;47.608;12.190;2022-09-29T10:07:17;6.60;;;1.50;;
13319;SDS011;59599;47.608;12.190;2022-09-29T10:09:44;1.27;;;0.90;;
13319;SDS011;59599;47.608;12.190;2022-09-29T10:12:16;1.10;;;0.70;;
13319;SDS011;59599;47.608;12.190;2022-09-29T10:14:52;1.00;;;0.90;;
13319;SDS011;59599;47.608;12.190;2022-09-29T10:17:24;1.93;;;0.90;;
13319;SDS011;59599;47.608;12.190;2022-09-29T10:19:58;1.47;;;1.00;;
13319;SDS011;59599;47.608;12.190;2022-09-29T10:22:25;2.93;;;0.60;;
13319;SDS011;59599;47.608;12.190;2022-09-29T10:24:52;3.93;;;0.80;;
13319;SDS011;59599;47.608;12.190;2022-09-29T10:27:22;0.93;;;0.60;;
13319;SDS011;59599;47.608;12.190;2022-09-29T10:29:50;0.77;;;0.60;;
13319;SDS011;59599;47.608;12.190;2022-09-29T10:32:29;0.60;;;0.60;;
13319;SDS011;59599;47.608;12.190;2022-09-29T10:35:19;0.63;;;0.63;;
13319;SDS011;59599;47.608;12.190;2022-09-29T10:37:51;0.90;;;0.80;;
13319;SDS011;59599;47.608;12.190;2022-09-29T10:40:26;0.87;;;0.77;;
13319;SDS011;59599;47.608;12.190;2022-09-29T10:42:52;1.07;;;0.90;;
13319;SDS011;59599;47.608;12.190;2022-09-29T10:45:19;2.30;;;1.60;;
13319;SDS011;59599;47.608;12.190;2022-09-29T10:47:46;1.60;;;1.10;;
13319;SDS011;59599;47.608;12.190;2022-09-29T10:50:34;1.90;;;1.20;;
13319;SDS011;59599;47.608;12.190;2022-09-29T10:53:22;1.13;;;1.03;;
13319;SDS011;59599;47.608;12.190;2022-09-29T10:55:52;1.33;;;1.03;;
13319;SDS011;59599;47.608;12.190;2022-09-29T10:58:30;2.90;;;1.00;;
13319;SDS011;59599;47.608;12.190;2022-09-29T11:01:12;1.63;;;0.90;;
13319;SDS011;59599;47.608;12.190;2022-09-29T11:03:47;0.90;;;0.90;;
13319;SDS011;59599;47.608;12.190;2022-09-29T11:06:16;1.13;;;0.97;;
13319;SDS011;59599;47.608;12.190;2022-09-29T11:11:23;0.87;;;0.67;;
13319;SDS011;59599;47.608;12.190;2022-09-29T11:13:49;2.07;;;0.90;;
13319;SDS011;59599;47.608;12.190;2022-09-29T11:16:27;0.60;;;0.60;;
13319;SDS011;59599;47.608;12.190;2022-09-29T11:18:54;3.33;;;0.90;;
13319;SDS011;59599;47.608;12.190;2022-09-29T11:26:59;2.73;;;1.00;;
13319;SDS011;59599;47.608;12.190;2022-09-29T11:29:42;1.20;;;1.07;;
13319;SDS011;59599;47.608;12.190;2022-09-29T11:34:58;0.93;;;0.83;;
13319;SDS011;59599;47.608;12.190;2022-09-29T11:42:59;1.80;;;0.73;;
13319;SDS011;59599;47.608;12.190;2022-09-29T12:01:58;1.95;;;0.80;;
13319;SDS011;59599;47.608;12.190;2022-09-29T12:07:09;1.25;;;0.80;;
13319;SDS011;59599;47.608;12.190;2022-09-29T12:09:55;2.10;;;0.75;;
13319;SDS011;59599;47.608;12.190;2022-09-29T12:17:26;1.27;;;0.80;;
13319;SDS011;59599;47.608;12.190;2022-09-29T12:20:03;3.40;;;0.80;;
13319;SDS011;59599;47.608;12.190;2022-09-29T12:22:30;0.60;;;0.60;;
13319;SDS011;59599;47.608;12.190;2022-09-29T12:24:57;1.20;;;0.80;;
13319;SDS011;59599;47.608;12.190;2022-09-29T12:27:28;0.80;;;0.80;;
13319;SDS011;59599;47.608;12.190;2022-09-29T12:29:57;1.87;;;0.80;;
13319;SDS011;59599;47.608;12.190;2022-09-29T12:32:28;0.93;;;0.70;;
13319;SDS011;59599;47.608;12.190;2022-09-29T12:34:56;0.63;;;0.63;;
13319;SDS011;59599;47.608;12.190;2022-09-29T12:37:34;1.97;;;0.80;;
13319;SDS011;59599;47.608;12.190;2022-09-29T12:42:54;4.00;;;1.80;;
13319;SDS011;59599;47.608;12.190;2022-09-29T12:50:57;3.97;;;1.20;;
13319;SDS011;59599;47.608;12.190;2022-09-29T12:56:37;1.13;;;1.03;;
13319;SDS011;59599;47.608;12.190;2022-09-29T12:59:13;2.83;;;1.00;;
13319;SDS011;59599;47.608;12.190;2022-09-29T13:01:48;2.70;;;1.00;;
13319;SDS011;59599;47.608;12.190;2022-09-29T13:12:50;3.50;;;1.00;;
13319;SDS011;59599;47.608;12.190;2022-09-29T13:15:28;1.00;;;0.90;;
13319;SDS011;59599;47.608;12.190;2022-09-29T13:26:08;2.10;;;1.37;;
13319;SDS011;59599;47.608;12.190;2022-09-29T13:28:49;4.13;;;1.27;;
13319;SDS011;59599;47.608;12.190;2022-09-29T13:31:22;2.33;;;1.37;;
13319;SDS011;59599;47.608;12.190;2022-09-29T13:33:50;1.63;;;1.10;;
13319;SDS011;59599;47.608;12.190;2022-09-29T13:36:21;1.93;;;1.03;;
13319;SDS011;59599;47.608;12.190;2022-09-29T13:38:50;2.33;;;1.27;;
13319;SDS011;59599;47.608;12.190;2022-09-29T13:41:40;2.43;;;1.50;;
13319;SDS011;59599;47.608;12.190;2022-09-29T13:44:16;2.80;;;1.20;;
13319;SDS011;59599;47.608;12.190;2022-09-29T13:46:48;2.57;;;1.27;;
13319;SDS011;59599;47.608;12.190;2022-09-29T13:49:25;1.63;;;1.30;;
13319;SDS011;59599;47.608;12.190;2022-09-29T13:54:23;4.13;;;1.20;;
13319;SDS011;59599;47.608;12.190;2022-09-29T13:57:00;1.83;;;1.30;;
13319;SDS011;59599;47.608;12.190;2022-09-29T14:02:34;1.60;;;1.33;;
13319;SDS011;59599;47.608;12.190;2022-09-29T14:05:03;1.30;;;1.20;;
13319;SDS011;59599;47.608;12.190;2022-09-29T14:15:27;2.10;;;1.90;;
13319;SDS011;59599;47.608;12.190;2022-09-29T14:17:58;2.80;;;1.50;;
13319;SDS011;59599;47.608;12.190;2022-09-29T14:20:30;1.50;;;1.40;;
13319;SDS011;59599;47.608;12.190;2022-09-29T14:23:00;2.00;;;1.80;;
13319;SDS011;59599;47.608;12.190;2022-09-29T14:25:28;3.10;;;1.97;;
13319;SDS011;59599;47.608;12.190;2022-09-29T14:28:13;2.17;;;1.60;;
13319;SDS011;59599;47.608;12.190;2022-09-29T14:30:47;2.40;;;1.60;;
13319;SDS011;59599;47.608;12.190;2022-09-29T14:33:22;2.23;;;1.40;;
13319;SDS011;59599;47.608;12.190;2022-09-29T14:38:21;1.93;;;1.30;;
13319;SDS011;59599;47.608;12.190;2022-09-29T14:41:38;1.60;;;1.50;;
13319;SDS011;59599;47.608;12.190;2022-09-29T14:46:08;3.10;;;1.70;;
13319;SDS011;59599;47.608;12.190;2022-09-29T15:02:35;1.63;;;1.30;;
13319;SDS011;59599;47.608;12.190;2022-09-29T15:05:13;4.80;;;1.58;;
13319;SDS011;59599;47.608;12.190;2022-09-29T15:07:40;3.30;;;1.90;;
13319;SDS011;59599;47.608;12.190;2022-09-29T15:10:18;4.03;;;1.70;;
13319;SDS011;59599;47.608;12.190;2022-09-29T15:12:45;4.43;;;1.80;;
13319;SDS011;59599;47.608;12.190;2022-09-29T15:15:35;1.80;;;1.50;;
13319;SDS011;59599;47.608;12.190;2022-09-29T15:18:24;2.23;;;1.50;;
13319;SDS011;59599;47.608;12.190;2022-09-29T15:20:59;2.73;;;1.77;;
13319;SDS011;59599;47.608;12.190;2022-09-29T15:23:53;2.00;;;1.53;;
13319;SDS011;59599;47.608;12.190;2022-09-29T15:26:43;1.77;;;1.67;;
13319;SDS011;59599;47.608;12.190;2022-09-29T15:29:12;1.77;;;1.53;;
13319;SDS011;59599;47.608;12.190;2022-09-29T15:31:39;2.23;;;1.80;;
13319;SDS011;59599;47.608;12.190;2022-09-29T15:34:08;2.17;;;1.97;;
13319;SDS011;59599;47.608;12.190;2022-09-29T15:36:41;2.43;;;2.23;;
13319;SDS011;59599;47.608;12.190;2022-09-29T15:41:59;2.30;;;2.10;;
13319;SDS011;59599;47.608;12.190;2022-09-29T15:44:27;2.20;;;2.00;;
13319;SDS011;59599;47.608;12.190;2022-09-29T15:46:56;3.10;;;1.73;;
13319;SDS011;59599;47.608;12.190;2022-09-29T15:49:24;2.20;;;2.00;;
13319;SDS011;59599;47.608;12.190;2022-09-29T15:54:30;2.63;;;2.30;;
13319;SDS011;59599;47.608;12.190;2022-09-29T15:57:01;4.37;;;2.60;;
13319;SDS011;59599;47.608;12.190;2022-09-29T15:59:46;3.37;;;2.60;;
13319;SDS011;59599;47.608;12.190;2022-09-29T16:02:16;3.23;;;2.40;;
13319;SDS011;59599;47.608;12.190;2022-09-29T16:04:57;4.43;;;2.57;;
13319;SDS011;59599;47.608;12.190;2022-09-29T16:07:25;3.30;;;2.77;;
13319;SDS011;59599;47.608;12.190;2022-09-29T16:09:56;3.33;;;2.50;;
13319;SDS011;59599;47.608;12.190;2022-09-29T16:12:23;3.20;;;2.73;;
13319;SDS011;59599;47.608;12.190;2022-09-29T16:14:52;6.77;;;2.70;;
13319;SDS011;59599;47.608;12.190;2022-09-29T16:17:21;5.10;;;2.73;;
13319;SDS011;59599;47.608;12.190;2022-09-29T16:19:49;3.30;;;2.93;;
13319;SDS011;59599;47.608;12.190;2022-09-29T16:22:22;4.93;;;3.30;;
13319;SDS011;59599;47.608;12.190;2022-09-29T16:24:51;3.63;;;3.10;;
13319;SDS011;59599;47.608;12.190;2022-09-29T16:27:38;4.43;;;3.40;;
13319;SDS011;59599;47.608;12.190;2022-09-29T16:30:16;5.07;;;3.43;;
13319;SDS011;59599;47.608;12.190;2022-09-29T16:32:44;5.30;;;3.60;;
13319;SDS011;59599;47.608;12.190;2022-09-29T16:40:48;5.03;;;3.60;;
13319;SDS011;59599;47.608;12.190;2022-09-29T16:45:50;4.97;;;3.77;;
13319;SDS011;59599;47.608;12.190;2022-09-29T16:48:19;4.57;;;4.17;;
13319;SDS011;59599;47.608;12.190;2022-09-29T16:50:46;4.63;;;4.20;;
13319;SDS011;59599;47.608;12.190;2022-09-29T16:53:21;4.20;;;3.60;;
13319;SDS011;59599;47.608;12.190;2022-09-29T16:55:59;4.77;;;3.90;;
13319;SDS011;59599;47.608;12.190;2022-09-29T16:58:26;3.93;;;3.53;;
13319;SDS011;59599;47.608;12.190;2022-09-29T17:00:52;5.07;;;3.53;;
13319;SDS011;59599;47.608;12.190;2022-09-29T17:03:18;4.00;;;3.70;;
13319;SDS011;59599;47.608;12.190;2022-09-29T17:05:44;4.63;;;4.10;;
13319;SDS011;59599;47.608;12.190;2022-09-29T17:08:19;5.13;;;3.20;;
13319;SDS011;59599;47.608;12.190;2022-09-29T17:10:50;4.87;;;3.83;;
13319;SDS011;59599;47.608;12.190;2022-09-29T17:13:17;4.00;;;3.60;;
13319;SDS011;59599;47.608;12.190;2022-09-29T17:15:44;4.97;;;4.33;;
13319;SDS011;59599;47.608;12.190;2022-09-29T17:18:11;4.57;;;3.90;;
13319;SDS011;59599;47.608;12.190;2022-09-29T17:20:37;4.90;;;3.87;;
13319;SDS011;59599;47.608;12.190;2022-09-29T17:23:03;3.80;;;3.40;;
13319;SDS011;59599;47.608;12.190;2022-09-29T17:25:30;4.57;;;3.70;;
13319;SDS011;59599;47.608;12.190;2022-09-29T17:27:57;5.67;;;3.60;;
13319;SDS011;59599;47.608;12.190;2022-09-29T17:30:36;5.80;;;3.70;;
13319;SDS011;59599;47.608;12.190;2022-09-29T17:33:02;4.97;;;3.97;;
13319;SDS011;59599;47.608;12.190;2022-09-29T17:35:38;5.20;;;4.20;;
13319;SDS011;59599;47.608;12.190;2022-09-29T17:38:05;4.73;;;4.27;;
13319;SDS011;59599;47.608;12.190;2022-09-29T17:40:52;4.00;;;3.60;;
13319;SDS011;59599;47.608;12.190;2022-09-29T17:43:20;4.50;;;3.40;;
13319;SDS011;59599;47.608;12.190;2022-09-29T17:45:48;4.37;;;3.60;;
13319;SDS011;59599;47.608;12.190;2022-09-29T17:48:14;3.97;;;3.60;;
13319;SDS011;59599;47.608;12.190;2022-09-29T17:50:45;4.10;;;3.70;;
13319;SDS011;59599;47.608;12.190;2022-09-29T17:53:12;4.77;;;3.60;;
13319;SDS011;59599;47.608;12.190;2022-09-29T17:55:39;3.90;;;3.50;;
13319;SDS011;59599;47.608;12.190;2022-09-29T17:58:05;4.33;;;3.20;;
13319;SDS011;59599;47.608;12.190;2022-09-29T18:00:35;3.10;;;2.90;;
13319;SDS011;59599;47.608;12.190;2022-09-29T18:03:05;4.23;;;3.17;;
13319;SDS011;59599;47.608;12.190;2022-09-29T18:05:34;3.70;;;3.40;;
13319;SDS011;59599;47.608;12.190;2022-09-29T18:08:01;4.00;;;3.60;;
13319;SDS011;59599;47.608;12.190;2022-09-29T18:10:41;3.83;;;3.23;;
13319;SDS011;59599;47.608;12.190;2022-09-29T18:13:07;4.10;;;3.73;;
13319;SDS011;59599;47.608;12.190;2022-09-29T18:15:33;43.20;;;23.77;;
13319;SDS011;59599;47.608;12.190;2022-09-29T18:18:00;25.17;;;14.77;;
13319;SDS011;59599;47.608;12.190;2022-09-29T18:20:27;16.03;;;10.07;;
13319;SDS011;59599;47.608;12.190;2022-09-29T18:22:55;8.53;;;6.43;;
13319;SDS011;59599;47.608;12.190;2022-09-29T18:25:23;7.47;;;4.63;;
13319;SDS011;59599;47.608;12.190;2022-09-29T18:27:50;4.13;;;3.73;;
13319;SDS011;59599;47.608;12.190;2022-09-29T18:32:45;3.67;;;2.73;;
13319;SDS011;59599;47.608;12.190;2022-09-29T18:35:13;3.53;;;2.80;;
13319;SDS011;59599;47.608;12.190;2022-09-29T18:37:40;3.97;;;3.10;;
13319;SDS011;59599;47.608;12.190;2022-09-29T18:40:06;4.07;;;3.03;;
13319;SDS011;59599;47.608;12.190;2022-09-29T18:42:32;3.03;;;2.70;;
13319;SDS011;59599;47.608;12.190;2022-09-29T18:45:03;3.23;;;2.50;;
13319;SDS011;59599;47.608;12.190;2022-09-29T18:47:29;3.30;;;2.87;;
13319;SDS011;59599;47.608;12.190;2022-09-29T18:49:55;3.53;;;3.23;;
13319;SDS011;59599;47.608;12.190;2022-09-29T18:52:21;4.50;;;3.97;;
13319;SDS011;59599;47.608;12.190;2022-09-29T18:54:47;4.47;;;4.03;;
13319;SDS011;59599;47.608;12.190;2022-09-29T18:57:12;4.97;;;4.50;;
13319;SDS011;59599;47.608;12.190;2022-09-29T18:59:38;6.10;;;3.70;;
13319;SDS011;59599;47.608;12.190;2022-09-29T19:02:05;3.10;;;2.80;;
13319;SDS011;59599;47.608;12.190;2022-09-29T19:04:34;2.67;;;2.47;;
13319;SDS011;59599;47.608;12.190;2022-09-29T19:07:00;2.90;;;2.60;;
13319;SDS011;59599;47.608;12.190;2022-09-29T19:09:29;3.33;;;2.67;;
13319;SDS011;59599;47.608;12.190;2022-09-29T19:11:54;2.83;;;2.53;;
13319;SDS011;59599;47.608;12.190;2022-09-29T19:14:20;5.00;;;3.40;;
13319;SDS011;59599;47.608;12.190;2022-09-29T19:16:47;4.87;;;3.23;;
13319;SDS011;59599;47.608;12.190;2022-09-29T19:19:13;3.03;;;2.73;;
13319;SDS011;59599;47.608;12.190;2022-09-29T19:21:39;2.80;;;2.47;;
13319;SDS011;59599;47.608;12.190;2022-09-29T19:24:06;2.90;;;2.60;;
13319;SDS011;59599;47.608;12.190;2022-09-29T19:26:32;3.40;;;2.53;;
13319;SDS011;59599;47.608;12.190;2022-09-29T19:28:57;3.17;;;2.67;;
13319;SDS011;59599;47.608;12.190;2022-09-29T19:31:23;3.30;;;2.97;;
13319;SDS011;59599;47.608;12.190;2022-09-29T19:33:49;2.70;;;2.50;;
13319;SDS011;59599;47.608;12.190;2022-09-29T19:36:17;3.07;;;2.80;;
13319;SDS011;59599;47.608;12.190;2022-09-29T19:38:43;3.50;;;3.20;;
13319;SDS011;59599;47.608;12.190;2022-09-29T19:41:14;3.43;;;2.63;;
13319;SDS011;59599;47.608;12.190;2022-09-29T19:43:40;2.80;;;2.60;;
13319;SDS011;59599;47.608;12.190;2022-09-29T19:46:07;3.57;;;2.73;;
13319;SDS011;59599;47.608;12.190;2022-09-29T19:48:33;3.77;;;3.10;;
13319;SDS011;59599;47.608;12.190;2022-09-29T19:50:59;4.00;;;2.53;;
13319;SDS011;59599;47.608;12.190;2022-09-29T19:53:43;4.07;;;3.17;;
13319;SDS011;59599;47.608;12.190;2022-09-29T19:56:10;3.33;;;3.00;;
13319;SDS011;59599;47.608;12.190;2022-09-29T19:58:37;3.70;;;3.27;;
13319;SDS011;59599;47.608;12.190;2022-09-29T20:01:04;4.43;;;3.17;;
13319;SDS011;59599;47.608;12.190;2022-09-29T20:03:30;3.50;;;3.20;;
13319;SDS011;59599;47.608;12.190;2022-09-29T20:05:59;4.23;;;3.60;;
13319;SDS011;59599;47.608;12.190;2022-09-29T20:08:26;3.47;;;3.17;;
13319;SDS011;59599;47.608;12.190;2022-09-29T20:10:52;3.87;;;3.47;;
13319;SDS011;59599;47.608;12.190;2022-09-29T20:13:18;3.73;;;3.43;;
13319;SDS011;59599;47.608;12.190;2022-09-29T20:15:43;3.50;;;3.20;;
13319;SDS011;59599;47.608;12.190;2022-09-29T20:18:10;4.97;;;3.70;;
13319;SDS011;59599;47.608;12.190;2022-09-29T20:20:36;5.43;;;4.30;;
13319;SDS011;59599;47.608;12.190;2022-09-29T20:23:05;5.27;;;3.83;;
13319;SDS011;59599;47.608;12.190;2022-09-29T20:25:30;4.90;;;4.17;;
13319;SDS011;59599;47.608;12.190;2022-09-29T20:27:56;4.43;;;4.00;;
13319;SDS011;59599;47.608;12.190;2022-09-29T20:30:22;5.20;;;4.37;;
13319;SDS011;59599;47.608;12.190;2022-09-29T20:32:50;4.97;;;4.40;;
13319;SDS011;59599;47.608;12.190;2022-09-29T20:35:15;6.43;;;4.00;;
13319;SDS011;59599;47.608;12.190;2022-09-29T20:37:41;6.27;;;4.47;;
13319;SDS011;59599;47.608;12.190;2022-09-29T20:40:07;5.70;;;5.07;;
13319;SDS011;59599;47.608;12.190;2022-09-29T20:42:34;5.13;;;4.63;;
13319;SDS011;59599;47.608;12.190;2022-09-29T20:45:01;5.30;;;4.43;;
13319;SDS011;59599;47.608;12.190;2022-09-29T20:47:27;5.07;;;4.40;;
13319;SDS011;59599;47.608;12.190;2022-09-29T20:49:54;4.50;;;4.10;;
13319;SDS011;59599;47.608;12.190;2022-09-29T20:52:20;6.73;;;4.43;;
13319;SDS011;59599;47.608;12.190;2022-09-29T20:54:49;4.73;;;4.33;;
13319;SDS011;59599;47.608;12.190;2022-09-29T20:57:15;5.40;;;4.20;;
13319;SDS011;59599;47.608;12.190;2022-09-29T20:59:41;5.40;;;4.83;;
13319;SDS011;59599;47.608;12.190;2022-09-29T21:02:11;4.87;;;4.43;;
13319;SDS011;59599;47.608;12.190;2022-09-29T21:04:37;4.50;;;4.10;;
13319;SDS011;59599;47.608;12.190;2022-09-29T21:07:02;5.07;;;4.57;;
13319;SDS011;59599;47.608;12.190;2022-09-29T21:09:28;5.17;;;4.63;;
13319;SDS011;59599;47.608;12.190;2022-09-29T21:11:54;4.77;;;4.27;;
13319;SDS011;59599;47.608;12.190;2022-09-29T21:14:22;7.67;;;4.87;;
13319;SDS011;59599;47.608;12.190;2022-09-29T21:16:49;5.37;;;4.30;;